createdAt,value
2017-05-17T00:01:49.625Z,57.50
2017-05-17T00:04:16.365Z,57.50
2017-05-17T00:06:43.054Z,57.90
2017-05-17T00:09:09.787Z,58.20
2017-05-17T00:11:36.495Z,58.00
2017-05-17T00:14:03.221Z,57.80
2017-05-17T00:16:30.649Z,58.20
2017-05-17T00:18:57.370Z,58.10
2017-05-17T00:21:24.053Z,58.10
2017-05-17T00:23:50.820Z,58.30
2017-05-17T00:26:17.500Z,58.10
2017-05-17T00:28:44.178Z,58.50
2017-05-17T00:31:10.902Z,58.60
2017-05-17T00:33:37.625Z,59.50
2017-05-17T00:36:16.715Z,58.90
2017-05-17T00:38:56.010Z,58.90
2017-05-17T00:41:35.334Z,59.30
2017-05-17T00:44:14.685Z,59.50
2017-05-17T00:46:53.788Z,59.60
2017-05-17T00:49:32.980Z,59.60
2017-05-17T00:52:07.005Z,60.00
2017-05-17T00:54:33.704Z,60.00
2017-05-17T00:57:00.420Z,60.00
2017-05-17T00:59:27.852Z,60.20
2017-05-17T01:01:54.575Z,60.20
2017-05-17T01:04:21.302Z,60.70
2017-05-17T01:06:47.991Z,61.00
2017-05-17T01:09:14.722Z,61.50
2017-05-17T01:11:41.419Z,61.40
2017-05-17T01:14:08.183Z,61.20
2017-05-17T01:16:34.907Z,61.70
2017-05-17T01:19:01.659Z,61.70
2017-05-17T01:21:28.380Z,61.40
2017-05-17T01:23:55.070Z,61.70
2017-05-17T01:26:21.797Z,62.20
2017-05-17T01:28:48.489Z,62.20
2017-05-17T01:31:15.173Z,62.00
2017-05-17T01:33:41.902Z,62.20
2017-05-17T01:36:08.676Z,62.50
2017-05-17T01:38:35.378Z,62.00
2017-05-17T01:41:02.851Z,62.50
2017-05-17T01:43:29.530Z,62.80
2017-05-17T01:45:56.250Z,62.60
2017-05-17T01:48:22.939Z,63.20
2017-05-17T01:50:49.645Z,63.20
2017-05-17T01:53:16.366Z,64.10
2017-05-17T01:55:43.064Z,65.00
2017-05-17T01:58:09.779Z,65.30
2017-05-17T02:00:36.530Z,64.50
2017-05-17T02:03:03.950Z,64.90
2017-05-17T02:05:30.803Z,65.10
2017-05-17T02:07:58.309Z,65.70
2017-05-17T02:10:25.026Z,66.00
2017-05-17T02:12:51.724Z,66.60
2017-05-17T02:15:18.459Z,66.40
2017-05-17T02:17:45.162Z,66.30
2017-05-17T02:20:11.862Z,66.60
2017-05-17T02:22:38.578Z,65.40
2017-05-17T02:25:05.275Z,65.70
2017-05-17T02:27:32.056Z,66.10
2017-05-17T02:29:59.481Z,66.30
2017-05-17T02:32:26.180Z,65.90
2017-05-17T02:34:52.934Z,66.70
2017-05-17T02:37:19.667Z,66.00
2017-05-17T02:39:47.085Z,67.20
2017-05-17T02:42:13.802Z,67.40
2017-05-17T02:44:40.524Z,67.40
2017-05-17T02:47:07.214Z,67.40
2017-05-17T02:49:33.937Z,67.50
2017-05-17T02:52:00.617Z,67.30
2017-05-17T02:54:27.314Z,66.60
2017-05-17T02:56:54.034Z,66.90
2017-05-17T02:59:20.739Z,66.30
2017-05-17T03:01:47.462Z,66.50
2017-05-17T03:04:14.166Z,66.00
2017-05-17T03:06:40.906Z,65.90
2017-05-17T03:09:07.602Z,67.90
2017-05-17T03:11:34.309Z,68.00
2017-05-17T03:14:01.814Z,67.40
2017-05-17T03:16:28.514Z,67.20
2017-05-17T03:18:55.214Z,66.90
2017-05-17T03:21:21.946Z,67.00
2017-05-17T03:23:48.681Z,67.70
2017-05-17T03:26:15.369Z,68.80
2017-05-17T03:28:42.794Z,68.80
2017-05-17T03:31:09.513Z,68.50
2017-05-17T03:33:36.202Z,68.70
2017-05-17T03:36:02.998Z,68.40
2017-05-17T03:38:30.466Z,68.40
2017-05-17T03:40:57.185Z,68.60
2017-05-17T03:43:23.933Z,69.90
2017-05-17T03:45:50.630Z,70.30
2017-05-17T03:48:17.326Z,70.40
2017-05-17T03:50:44.075Z,71.30
2017-05-17T03:53:11.506Z,71.10
2017-05-17T03:55:38.946Z,71.60
2017-05-17T03:58:05.666Z,71.80
2017-05-17T04:00:32.365Z,72.00
2017-05-17T04:02:59.107Z,72.10
2017-05-17T04:05:25.826Z,72.20
2017-05-17T04:07:52.563Z,72.60
2017-05-17T04:10:19.254Z,74.00
2017-05-17T04:12:48.935Z,74.60
2017-05-17T04:15:15.626Z,74.50
2017-05-17T04:17:42.318Z,74.10
2017-05-17T04:20:09.059Z,74.20
2017-05-17T04:22:35.748Z,74.80
2017-05-17T04:25:02.446Z,74.70
2017-05-17T04:27:29.934Z,74.30
2017-05-17T04:29:56.652Z,74.00
2017-05-17T04:32:23.370Z,74.50
2017-05-17T04:34:50.139Z,75.50
2017-05-17T04:37:16.887Z,74.80
2017-05-17T04:39:43.607Z,74.70
2017-05-17T04:42:17.225Z,74.70
2017-05-17T04:44:43.947Z,74.60
2017-05-17T04:47:10.646Z,75.60
2017-05-17T04:49:37.436Z,75.30
2017-05-17T04:52:04.100Z,75.30
2017-05-17T04:54:30.795Z,75.90
2017-05-17T04:56:57.546Z,76.10
2017-05-17T04:59:24.302Z,76.10
2017-05-17T05:01:51.738Z,76.00
2017-05-17T05:04:19.170Z,76.00
2017-05-17T05:06:46.657Z,76.10
2017-05-17T05:09:13.418Z,76.40
2017-05-17T05:11:40.110Z,76.00
2017-05-17T05:14:06.849Z,75.50
2017-05-17T05:16:33.546Z,75.10
2017-05-17T05:19:00.248Z,75.70
2017-05-17T05:21:27.738Z,77.50
2017-05-17T05:23:54.469Z,76.30
2017-05-17T05:26:21.162Z,76.10
2017-05-17T05:28:47.855Z,75.80
2017-05-17T05:31:14.591Z,75.30
2017-05-17T05:33:42.070Z,72.70
2017-05-17T05:36:08.818Z,71.50
2017-05-17T05:38:35.537Z,71.60
2017-05-17T05:41:02.247Z,70.80
2017-05-17T05:43:28.990Z,71.10
2017-05-17T05:45:55.682Z,70.70
2017-05-17T05:48:22.376Z,69.40
2017-05-17T05:50:49.095Z,67.80
2017-05-17T05:53:15.815Z,68.00
2017-05-17T05:55:42.510Z,67.20
2017-05-17T05:58:09.246Z,66.90
2017-05-17T06:00:35.934Z,66.00
2017-05-17T06:03:02.614Z,67.10
2017-05-17T06:05:29.357Z,66.40
2017-05-17T06:07:56.078Z,65.10
2017-05-17T06:10:22.803Z,65.00
2017-05-17T06:12:49.493Z,66.30
2017-05-17T06:15:16.213Z,66.00
2017-05-17T06:17:42.897Z,66.10
2017-05-17T06:20:09.614Z,67.00
2017-05-17T06:22:37.046Z,67.40
2017-05-17T06:25:03.846Z,67.70
2017-05-17T06:27:30.559Z,66.70
2017-05-17T06:29:57.265Z,66.30
2017-05-17T06:32:23.997Z,66.40
2017-05-17T06:34:50.682Z,66.70
2017-05-17T06:37:18.176Z,65.50
2017-05-17T06:39:44.866Z,66.10
2017-05-17T06:42:12.371Z,64.90
2017-05-17T06:44:39.062Z,64.40
2017-05-17T06:47:05.786Z,63.80
2017-05-17T06:49:32.470Z,63.10
2017-05-17T06:51:59.902Z,63.00
2017-05-17T06:54:26.638Z,63.80
2017-05-17T06:56:54.070Z,63.30
2017-05-17T06:59:20.766Z,64.30
2017-05-17T07:01:47.550Z,62.30
2017-05-17T07:04:14.238Z,62.70
2017-05-17T07:06:40.930Z,62.80
2017-05-17T07:09:07.668Z,62.80
2017-05-17T07:11:34.358Z,63.20
2017-05-17T07:14:01.054Z,63.50
2017-05-17T07:16:28.547Z,64.70
2017-05-17T07:18:55.258Z,62.50
2017-05-17T07:21:21.998Z,62.50
2017-05-17T07:23:48.685Z,62.50
2017-05-17T07:26:16.115Z,61.30
2017-05-17T07:28:42.902Z,61.80
2017-05-17T07:31:09.601Z,62.00
2017-05-17T07:33:36.320Z,61.90
2017-05-17T07:36:03.023Z,63.50
2017-05-17T07:38:30.532Z,63.10
2017-05-17T07:40:57.234Z,64.40
2017-05-17T07:43:23.931Z,61.30
2017-05-17T07:45:51.408Z,63.00
2017-05-17T07:48:18.103Z,63.10
2017-05-17T07:50:44.833Z,61.00
2017-05-17T07:53:11.525Z,59.50
2017-05-17T07:55:38.278Z,58.30
2017-05-17T07:58:04.979Z,59.60
2017-05-17T08:00:31.675Z,58.70
2017-05-17T08:02:58.402Z,58.80
2017-05-17T08:05:25.101Z,57.60
2017-05-17T08:07:51.843Z,58.30
2017-05-17T08:10:18.546Z,56.40
2017-05-17T08:12:45.238Z,56.80
2017-05-17T08:15:11.962Z,54.40
2017-05-17T08:17:38.686Z,56.60
2017-05-17T08:20:05.383Z,56.10
2017-05-17T08:22:32.106Z,54.90
2017-05-17T08:24:58.857Z,55.30
2017-05-17T08:27:26.291Z,54.70
2017-05-17T08:29:52.991Z,54.70
2017-05-17T08:32:19.714Z,54.60
2017-05-17T08:34:46.402Z,54.90
2017-05-17T08:37:13.828Z,54.60
2017-05-17T08:39:41.321Z,54.70
2017-05-17T08:42:08.019Z,54.80
2017-05-17T08:44:34.735Z,55.30
2017-05-17T08:47:01.435Z,54.80
2017-05-17T08:49:28.191Z,54.40
2017-05-17T08:51:54.885Z,54.50
2017-05-17T08:54:21.614Z,53.90
2017-05-17T08:56:48.309Z,53.90
2017-05-17T08:59:15.027Z,55.90
2017-05-17T09:01:41.766Z,52.90
2017-05-17T09:04:08.483Z,53.20
2017-05-17T09:06:35.202Z,53.60
2017-05-17T09:09:01.921Z,52.60
2017-05-17T09:11:28.646Z,55.20
2017-05-17T09:13:55.338Z,53.40
2017-05-17T09:16:22.063Z,52.00
2017-05-17T09:18:48.786Z,52.90
2017-05-17T09:21:15.519Z,49.70
2017-05-17T09:23:42.247Z,52.40
2017-05-17T09:26:09.021Z,50.20
2017-05-17T09:28:36.454Z,50.20
2017-05-17T09:31:03.158Z,53.20
2017-05-17T09:33:29.923Z,49.60
2017-05-17T09:35:57.399Z,51.10
2017-05-17T09:38:24.170Z,51.90
2017-05-17T09:40:50.853Z,52.80
2017-05-17T09:43:17.556Z,52.50
2017-05-17T09:45:44.283Z,51.80
2017-05-17T09:48:10.998Z,50.80
2017-05-17T09:50:38.495Z,52.20
2017-05-17T09:53:05.194Z,51.60
2017-05-17T09:55:31.918Z,51.60
2017-05-17T09:57:58.677Z,50.40
2017-05-17T10:00:25.402Z,51.20
2017-05-17T10:02:52.095Z,51.10
2017-05-17T10:05:18.832Z,52.00
2017-05-17T10:07:45.534Z,51.00
2017-05-17T10:10:12.234Z,51.90
2017-05-17T10:12:39.699Z,48.70
2017-05-17T10:15:06.418Z,52.30
2017-05-17T10:17:33.151Z,52.50
2017-05-17T10:19:59.846Z,53.10
2017-05-17T10:22:26.566Z,50.80
2017-05-17T10:24:53.270Z,49.20
2017-05-17T10:27:19.990Z,50.80
2017-05-17T10:29:46.683Z,48.20
2017-05-17T10:32:13.414Z,47.60
2017-05-17T10:34:40.098Z,50.30
2017-05-17T10:37:06.835Z,50.90
2017-05-17T10:39:33.558Z,49.20
2017-05-17T10:42:00.259Z,49.60
2017-05-17T10:44:26.981Z,47.50
2017-05-17T10:46:53.677Z,49.70
2017-05-17T10:49:20.427Z,50.00
2017-05-17T10:51:47.127Z,48.10
2017-05-17T10:54:14.586Z,50.60
2017-05-17T10:56:41.334Z,48.60
2017-05-17T10:59:08.035Z,48.00
2017-05-17T11:01:34.761Z,47.00
2017-05-17T11:04:01.463Z,49.70
2017-05-17T11:06:28.182Z,49.10
2017-05-17T11:08:54.892Z,47.70
2017-05-17T11:11:21.641Z,46.60
2017-05-17T11:13:49.082Z,47.60
2017-05-17T11:16:15.795Z,45.80
2017-05-17T11:18:42.571Z,48.10
2017-05-17T11:21:09.274Z,48.40
2017-05-17T11:23:36.758Z,46.90
2017-05-17T11:26:03.450Z,46.00
2017-05-17T11:28:30.890Z,44.00
2017-05-17T11:30:58.362Z,43.80
2017-05-17T11:33:25.059Z,45.00
2017-05-17T11:35:51.774Z,48.10
2017-05-17T11:38:19.250Z,47.50
2017-05-17T11:40:45.986Z,46.50
2017-05-17T11:43:12.716Z,46.30
2017-05-17T11:45:39.411Z,45.10
2017-05-17T11:48:06.142Z,45.80
2017-05-17T11:50:32.826Z,45.40
2017-05-17T11:52:59.554Z,44.50
2017-05-17T11:55:26.294Z,45.40
2017-05-17T11:57:53.730Z,44.70
2017-05-17T12:00:20.449Z,46.10
2017-05-17T12:02:47.190Z,43.90
2017-05-17T12:05:14.629Z,43.20
2017-05-17T12:07:42.134Z,42.30
2017-05-17T12:10:08.856Z,42.20
2017-05-17T12:12:35.845Z,41.60
2017-05-17T12:15:02.578Z,40.20
2017-05-17T12:17:29.271Z,40.40
2017-05-17T12:19:56.146Z,39.80
2017-05-17T12:22:22.898Z,40.70
2017-05-17T12:24:49.634Z,39.80
2017-05-17T12:27:16.342Z,36.20
2017-05-17T12:29:43.098Z,34.40
2017-05-17T12:32:09.966Z,30.40
2017-05-17T12:34:36.671Z,29.50
2017-05-17T12:37:04.110Z,29.60
2017-05-17T12:39:31.691Z,28.70
2017-05-17T12:41:58.386Z,28.30
2017-05-17T12:44:25.866Z,25.90
2017-05-17T12:46:52.566Z,25.70
2017-05-17T12:49:19.280Z,26.50
2017-05-17T12:51:46.031Z,26.00
2017-05-17T12:54:12.818Z,24.40
2017-05-17T12:56:39.519Z,23.40
2017-05-17T12:59:06.246Z,23.10
2017-05-17T13:01:32.990Z,22.90
2017-05-17T13:03:59.682Z,23.90
2017-05-17T13:06:26.386Z,25.30
2017-05-17T13:08:53.118Z,25.30
2017-05-17T13:11:20.202Z,25.00
2017-05-17T13:13:46.974Z,24.50
2017-05-17T13:16:13.703Z,23.70
2017-05-17T13:18:40.459Z,24.30
2017-05-17T13:21:07.178Z,22.50
2017-05-17T13:23:33.883Z,22.80
2017-05-17T13:26:00.625Z,23.50
2017-05-17T13:28:27.321Z,24.80
2017-05-17T13:30:54.015Z,25.20
2017-05-17T13:33:20.738Z,25.40
2017-05-17T13:35:47.477Z,24.60
2017-05-17T13:38:14.941Z,24.60
2017-05-17T13:40:41.734Z,23.70
2017-05-17T13:43:08.426Z,21.50
2017-05-17T13:45:35.176Z,21.50
2017-05-17T13:48:01.874Z,21.30
2017-05-17T13:50:28.614Z,22.40
2017-05-17T13:52:55.423Z,22.20
2017-05-17T13:55:22.148Z,22.40
2017-05-17T13:57:48.867Z,22.70
2017-05-17T14:00:15.646Z,22.40
2017-05-17T14:02:42.374Z,21.80
2017-05-17T14:05:09.925Z,21.40
2017-05-17T14:07:37.367Z,20.80
2017-05-17T14:10:04.822Z,22.80
2017-05-17T14:12:31.591Z,24.00
2017-05-17T14:14:58.312Z,23.40
2017-05-17T14:17:25.059Z,23.20
2017-05-17T14:19:51.823Z,22.40
2017-05-17T14:22:18.526Z,23.20
2017-05-17T14:24:45.222Z,24.20
2017-05-17T14:27:11.978Z,24.60
2017-05-17T14:29:38.683Z,24.80
2017-05-17T14:32:05.387Z,24.50
2017-05-17T14:34:32.138Z,25.50
2017-05-17T14:36:58.900Z,26.20
2017-05-17T14:39:25.634Z,25.40
2017-05-17T14:41:52.378Z,23.60
2017-05-17T14:44:19.832Z,23.10
2017-05-17T14:46:46.544Z,22.50
2017-05-17T14:49:14.014Z,23.90
2017-05-17T14:51:40.749Z,24.40
2017-05-17T14:54:07.449Z,24.70
2017-05-17T14:56:34.146Z,24.70
2017-05-17T14:59:00.866Z,23.50
2017-05-17T15:01:27.566Z,23.80
2017-05-17T15:03:54.285Z,24.90
2017-05-17T15:06:20.981Z,26.10
2017-05-17T15:08:47.767Z,27.60
2017-05-17T15:11:14.482Z,28.70
2017-05-17T15:13:42.108Z,28.00
2017-05-17T15:16:08.901Z,27.00
2017-05-17T15:18:35.643Z,26.70
2017-05-17T15:21:02.370Z,26.20
2017-05-17T15:23:29.066Z,26.40
2017-05-17T15:25:55.836Z,26.40
2017-05-17T15:28:22.543Z,26.30
2017-05-17T15:30:49.297Z,26.80
2017-05-17T15:33:15.989Z,27.70
2017-05-17T15:35:42.698Z,28.30
2017-05-17T15:38:09.447Z,29.00
2017-05-17T15:40:36.183Z,29.80
2017-05-17T15:43:02.902Z,29.80
2017-05-17T15:45:29.594Z,30.70
2017-05-17T15:47:56.362Z,31.60
2017-05-17T15:50:23.307Z,31.50
2017-05-17T15:52:50.015Z,32.50
2017-05-17T15:55:16.714Z,32.60
2017-05-17T15:57:43.468Z,33.70
2017-05-17T16:00:10.926Z,34.10
2017-05-17T16:02:38.385Z,34.70
2017-05-17T16:05:05.078Z,34.90
2017-05-17T16:07:32.555Z,35.30
2017-05-17T16:09:59.256Z,35.30
2017-05-17T16:12:26.698Z,35.70
2017-05-17T16:14:54.178Z,36.00
2017-05-17T16:17:20.889Z,36.60
2017-05-17T16:19:47.629Z,36.30
2017-05-17T16:22:14.318Z,36.40
2017-05-17T16:24:41.750Z,36.70
2017-05-17T16:27:09.241Z,36.80
2017-05-17T16:29:35.942Z,36.70
2017-05-17T16:32:02.662Z,37.20
2017-05-17T16:34:30.147Z,37.20
2017-05-17T16:36:56.882Z,37.60
2017-05-17T16:39:23.646Z,37.30
2017-05-17T16:41:51.193Z,37.50
2017-05-17T16:44:18.650Z,37.60
2017-05-17T16:46:45.350Z,38.30
2017-05-17T16:49:12.107Z,37.90
2017-05-17T16:51:38.806Z,37.70
2017-05-17T16:54:05.546Z,37.10
2017-05-17T16:56:32.987Z,37.30
2017-05-17T16:59:00.436Z,37.80
2017-05-17T17:01:27.914Z,37.80
2017-05-17T17:03:54.637Z,38.10
2017-05-17T17:06:21.355Z,38.40
2017-05-17T17:08:48.111Z,38.40
2017-05-17T17:11:14.827Z,38.70
2017-05-17T17:13:41.522Z,39.00
2017-05-17T17:16:08.255Z,38.70
2017-05-17T17:18:34.995Z,39.30
2017-05-17T17:21:01.706Z,39.50
2017-05-17T17:23:28.474Z,39.70
2017-05-17T17:25:55.209Z,39.70
2017-05-17T17:28:21.950Z,39.90
2017-05-17T17:30:49.389Z,40.30
2017-05-17T17:33:16.135Z,40.60
2017-05-17T17:35:43.570Z,40.80
2017-05-17T17:38:11.108Z,41.20
2017-05-17T17:40:37.894Z,41.40
2017-05-17T17:43:04.608Z,41.40
2017-05-17T17:45:31.306Z,41.60
2017-05-17T17:47:58.775Z,41.70
2017-05-17T17:50:25.475Z,42.20
2017-05-17T17:52:52.943Z,42.40
2017-05-17T17:55:19.638Z,42.80
2017-05-17T17:57:47.104Z,42.80
2017-05-17T18:00:13.802Z,43.50
2017-05-17T18:02:41.402Z,43.40
2017-05-17T18:05:08.114Z,44.00
2017-05-17T18:07:34.814Z,44.00
2017-05-17T18:10:02.310Z,44.80
2017-05-17T18:12:28.997Z,44.70
2017-05-17T18:14:55.703Z,45.10
2017-05-17T18:17:23.185Z,45.10
2017-05-17T18:19:49.922Z,45.50
2017-05-17T18:22:16.629Z,46.00
2017-05-17T18:24:43.384Z,46.30
2017-05-17T18:27:10.108Z,46.30
2017-05-17T18:29:36.802Z,46.80
2017-05-17T18:32:03.626Z,47.20
2017-05-17T18:34:30.318Z,47.60
2017-05-17T18:36:57.779Z,47.90
2017-05-17T18:39:24.514Z,47.90
2017-05-17T18:41:51.981Z,47.90
2017-05-17T18:44:18.701Z,47.80
2017-05-17T18:46:45.438Z,47.80
2017-05-17T18:49:12.132Z,47.80
2017-05-17T18:51:38.874Z,48.60
2017-05-17T18:54:05.566Z,48.20
2017-05-17T18:56:32.998Z,48.80
2017-05-17T18:58:59.877Z,48.70
2017-05-17T19:01:26.586Z,48.70
2017-05-17T19:03:53.278Z,49.50
2017-05-17T19:06:27.049Z,51.00
2017-05-17T19:08:53.755Z,51.90
2017-05-17T19:11:20.518Z,51.50
2017-05-17T19:13:47.266Z,51.90
2017-05-17T19:16:14.704Z,51.80
2017-05-17T19:18:42.181Z,52.50
2017-05-17T19:21:08.905Z,52.30
2017-05-17T19:23:35.614Z,52.90
2017-05-17T19:26:02.358Z,53.30
2017-05-17T19:28:29.089Z,53.10
2017-05-17T19:30:55.834Z,53.60
2017-05-17T19:33:22.574Z,53.80
2017-05-17T19:35:49.331Z,54.00
2017-05-17T19:38:16.759Z,53.80
2017-05-17T19:40:43.530Z,54.20
2017-05-17T19:43:10.223Z,54.80
2017-05-17T19:45:37.705Z,54.60
2017-05-17T19:48:04.402Z,54.80
2017-05-17T19:50:31.850Z,54.90
2017-05-17T19:52:58.625Z,56.30
2017-05-17T19:55:25.346Z,55.50
2017-05-17T19:57:52.034Z,55.50
2017-05-17T20:00:18.778Z,55.70
2017-05-17T20:02:45.478Z,55.80
2017-05-17T20:05:12.915Z,56.10
2017-05-17T20:07:40.397Z,56.10
2017-05-17T20:10:08.206Z,56.20
2017-05-17T20:12:35.655Z,56.50
2017-05-17T20:15:03.149Z,56.70
2017-05-17T20:17:29.871Z,56.60
2017-05-17T20:19:56.562Z,57.00
2017-05-17T20:22:23.302Z,57.30
2017-05-17T20:24:49.999Z,57.30
2017-05-17T20:27:17.442Z,57.20
2017-05-17T20:29:44.906Z,58.00
2017-05-17T20:32:11.602Z,57.70
2017-05-17T20:34:39.070Z,58.00
2017-05-17T20:37:05.762Z,57.90
2017-05-17T20:39:32.501Z,58.20
2017-05-17T20:41:59.307Z,58.10
2017-05-17T20:44:26.006Z,58.80
2017-05-17T20:46:52.739Z,59.10
2017-05-17T20:49:19.447Z,59.10
2017-05-17T20:51:46.147Z,59.80
2017-05-17T20:54:12.881Z,60.10
2017-05-17T20:56:39.570Z,60.60
2017-05-17T20:59:06.264Z,60.00
2017-05-17T21:01:33.010Z,61.20
2017-05-17T21:04:00.477Z,61.40
2017-05-17T21:06:28.022Z,62.00
2017-05-17T21:08:54.730Z,62.90
2017-05-17T21:11:21.470Z,61.30
2017-05-17T21:13:48.911Z,61.50
2017-05-17T21:16:16.347Z,62.50
2017-05-17T21:18:44.029Z,62.70
2017-05-17T21:21:10.731Z,63.70
2017-05-17T21:23:38.222Z,63.60
2017-05-17T21:26:04.906Z,64.20
2017-05-17T21:28:31.622Z,65.00
2017-05-17T21:30:59.150Z,65.40
2017-05-17T21:33:25.914Z,66.30
2017-05-17T21:35:52.617Z,66.90
2017-05-17T21:38:20.094Z,66.90
2017-05-17T21:40:46.790Z,67.30
2017-05-17T21:43:14.254Z,67.10
2017-05-17T21:45:41.024Z,67.30
2017-05-17T21:48:07.721Z,67.30
2017-05-17T21:50:34.434Z,67.30
2017-05-17T21:53:01.181Z,68.70
2017-05-17T21:55:27.905Z,69.40
2017-05-17T21:57:54.695Z,69.30
2017-05-17T22:00:21.406Z,69.10
2017-05-17T22:02:48.839Z,69.70
2017-05-17T22:05:16.306Z,70.20
2017-05-17T22:07:43.780Z,69.40
2017-05-17T22:10:10.473Z,70.10
2017-05-17T22:12:37.934Z,70.40
2017-05-17T22:15:04.619Z,70.00
2017-05-17T22:17:31.355Z,70.70
2017-05-17T22:19:58.066Z,71.30
2017-05-17T22:22:24.785Z,71.90
2017-05-17T22:24:51.509Z,72.10
2017-05-17T22:27:18.202Z,72.50
2017-05-17T22:29:44.941Z,70.90
2017-05-17T22:32:11.633Z,72.10
2017-05-17T22:34:38.331Z,72.50
2017-05-17T22:37:05.798Z,72.80
2017-05-17T22:39:32.498Z,72.90
2017-05-17T22:42:00.345Z,72.40
2017-05-17T22:44:27.047Z,71.90
2017-05-17T22:46:53.742Z,72.60
2017-05-17T22:49:20.473Z,72.40
2017-05-17T22:51:47.175Z,72.90
2017-05-17T22:54:13.913Z,73.80
2017-05-17T22:56:40.619Z,73.30
2017-05-17T22:59:07.318Z,74.30
2017-05-17T23:01:34.062Z,73.80
2017-05-17T23:04:01.502Z,73.30
2017-05-17T23:06:28.268Z,73.70
2017-05-17T23:08:55.043Z,74.60
2017-05-17T23:11:21.738Z,74.00
2017-05-17T23:13:48.457Z,73.90
2017-05-17T23:16:15.158Z,75.50
2017-05-17T23:18:41.890Z,75.30
2017-05-17T23:21:08.592Z,75.50
2017-05-17T23:23:36.066Z,75.10
2017-05-17T23:26:02.767Z,75.90
2017-05-17T23:28:29.530Z,76.20
2017-05-17T23:30:56.270Z,76.20
2017-05-17T23:33:22.973Z,77.00
2017-05-17T23:35:49.687Z,76.50
2017-05-17T23:38:16.447Z,76.60
2017-05-17T23:40:43.410Z,76.50
2017-05-17T23:43:10.926Z,76.80
2017-05-17T23:45:37.653Z,75.60
2017-05-17T23:48:04.354Z,75.80
2017-05-17T23:50:31.104Z,76.70
2017-05-17T23:52:57.806Z,76.40
2017-05-17T23:55:24.565Z,76.80
2017-05-17T23:57:51.253Z,76.50
